sensor_id;sensor_type;location;lat;lon;timestamp;P1;durP1;ratioP1;P2;durP2;ratioP2
72358;SDS011;60317;48.880;-0.862;2022-07-06T00:01:44;1.13;;;0.73;;
72358;SDS011;60317;48.880;-0.862;2022-07-06T00:04:11;1.05;;;0.80;;
72358;SDS011;60317;48.880;-0.862;2022-07-06T00:06:38;1.38;;;0.65;;
72358;SDS011;60317;48.880;-0.862;2022-07-06T00:09:06;1.17;;;0.65;;
72358;SDS011;60317;48.880;-0.862;2022-07-06T00:11:33;1.27;;;0.60;;
72358;SDS011;60317;48.880;-0.862;2022-07-06T00:13:59;1.45;;;0.63;;
72358;SDS011;60317;48.880;-0.862;2022-07-06T00:16:26;1.20;;;0.60;;
72358;SDS011;60317;48.880;-0.862;2022-07-06T00:18:52;1.98;;;0.90;;
72358;SDS011;60317;48.880;-0.862;2022-07-06T00:21:19;2.30;;;0.98;;
72358;SDS011;60317;48.880;-0.862;2022-07-06T00:23:45;1.42;;;0.80;;
72358;SDS011;60317;48.880;-0.862;2022-07-06T00:26:13;0.70;;;0.70;;
72358;SDS011;60317;48.880;-0.862;2022-07-06T00:28:40;1.50;;;0.70;;
72358;SDS011;60317;48.880;-0.862;2022-07-06T00:31:06;1.02;;;0.70;;
72358;SDS011;60317;48.880;-0.862;2022-07-06T00:33:33;1.52;;;0.70;;
72358;SDS011;60317;48.880;-0.862;2022-07-06T00:36:00;1.23;;;0.75;;
72358;SDS011;60317;48.880;-0.862;2022-07-06T00:38:26;1.42;;;0.50;;
72358;SDS011;60317;48.880;-0.862;2022-07-06T00:40:53;2.78;;;0.77;;
72358;SDS011;60317;48.880;-0.862;2022-07-06T00:43:20;0.52;;;0.50;;
72358;SDS011;60317;48.880;-0.862;2022-07-06T00:45:47;1.08;;;0.77;;
72358;SDS011;60317;48.880;-0.862;2022-07-06T00:48:13;1.20;;;0.77;;
72358;SDS011;60317;48.880;-0.862;2022-07-06T00:50:40;0.93;;;0.68;;
72358;SDS011;60317;48.880;-0.862;2022-07-06T00:53:07;0.52;;;0.50;;
72358;SDS011;60317;48.880;-0.862;2022-07-06T00:55:34;0.75;;;0.70;;
72358;SDS011;60317;48.880;-0.862;2022-07-06T00:58:01;1.63;;;0.80;;
72358;SDS011;60317;48.880;-0.862;2022-07-06T01:00:30;1.27;;;0.73;;
72358;SDS011;60317;48.880;-0.862;2022-07-06T01:02:57;1.40;;;0.85;;
72358;SDS011;60317;48.880;-0.862;2022-07-06T01:05:24;2.00;;;1.00;;
72358;SDS011;60317;48.880;-0.862;2022-07-06T01:07:51;1.17;;;0.85;;
72358;SDS011;60317;48.880;-0.862;2022-07-06T01:10:19;1.58;;;0.80;;
72358;SDS011;60317;48.880;-0.862;2022-07-06T01:12:47;1.10;;;0.65;;
72358;SDS011;60317;48.880;-0.862;2022-07-06T01:15:15;1.27;;;0.80;;
72358;SDS011;60317;48.880;-0.862;2022-07-06T01:17:45;1.63;;;0.60;;
72358;SDS011;60317;48.880;-0.862;2022-07-06T01:20:14;2.25;;;0.80;;
72358;SDS011;60317;48.880;-0.862;2022-07-06T01:22:42;1.48;;;0.70;;
72358;SDS011;60317;48.880;-0.862;2022-07-06T01:25:08;1.33;;;0.80;;
72358;SDS011;60317;48.880;-0.862;2022-07-06T01:27:35;2.45;;;0.90;;
72358;SDS011;60317;48.880;-0.862;2022-07-06T01:30:03;1.13;;;0.90;;
72358;SDS011;60317;48.880;-0.862;2022-07-06T01:32:31;1.60;;;0.63;;
72358;SDS011;60317;48.880;-0.862;2022-07-06T01:34:57;1.23;;;0.80;;
72358;SDS011;60317;48.880;-0.862;2022-07-06T01:37:25;1.23;;;0.60;;
72358;SDS011;60317;48.880;-0.862;2022-07-06T01:39:52;1.13;;;0.85;;
72358;SDS011;60317;48.880;-0.862;2022-07-06T01:42:18;2.20;;;0.82;;
72358;SDS011;60317;48.880;-0.862;2022-07-06T01:44:45;0.93;;;0.70;;
72358;SDS011;60317;48.880;-0.862;2022-07-06T01:47:11;2.00;;;0.90;;
72358;SDS011;60317;48.880;-0.862;2022-07-06T01:49:38;2.17;;;0.70;;
72358;SDS011;60317;48.880;-0.862;2022-07-06T01:52:04;1.52;;;0.80;;
72358;SDS011;60317;48.880;-0.862;2022-07-06T01:54:33;1.98;;;0.93;;
72358;SDS011;60317;48.880;-0.862;2022-07-06T01:56:59;1.02;;;0.77;;
72358;SDS011;60317;48.880;-0.862;2022-07-06T01:59:26;1.08;;;0.77;;
72358;SDS011;60317;48.880;-0.862;2022-07-06T02:01:52;1.23;;;0.68;;
72358;SDS011;60317;48.880;-0.862;2022-07-06T02:04:19;0.75;;;0.60;;
72358;SDS011;60317;48.880;-0.862;2022-07-06T02:06:46;0.75;;;0.60;;
72358;SDS011;60317;48.880;-0.862;2022-07-06T02:09:12;0.88;;;0.50;;
72358;SDS011;60317;48.880;-0.862;2022-07-06T02:11:40;1.15;;;0.75;;
72358;SDS011;60317;48.880;-0.862;2022-07-06T02:14:07;0.95;;;0.60;;
72358;SDS011;60317;48.880;-0.862;2022-07-06T02:16:33;1.42;;;0.77;;
72358;SDS011;60317;48.880;-0.862;2022-07-06T02:19:00;1.42;;;0.80;;
72358;SDS011;60317;48.880;-0.862;2022-07-06T02:21:26;0.85;;;0.60;;
72358;SDS011;60317;48.880;-0.862;2022-07-06T02:23:53;1.05;;;0.70;;
72358;SDS011;60317;48.880;-0.862;2022-07-06T02:26:20;1.85;;;0.95;;
72358;SDS011;60317;48.880;-0.862;2022-07-06T02:28:48;0.82;;;0.68;;
72358;SDS011;60317;48.880;-0.862;2022-07-06T02:31:14;1.42;;;0.77;;
72358;SDS011;60317;48.880;-0.862;2022-07-06T02:33:41;1.05;;;0.82;;
72358;SDS011;60317;48.880;-0.862;2022-07-06T02:36:07;0.95;;;0.65;;
72358;SDS011;60317;48.880;-0.862;2022-07-06T02:38:34;2.00;;;0.90;;
72358;SDS011;60317;48.880;-0.862;2022-07-06T02:41:00;1.58;;;0.82;;
72358;SDS011;60317;48.880;-0.862;2022-07-06T02:43:27;1.85;;;0.98;;
72358;SDS011;60317;48.880;-0.862;2022-07-06T02:45:55;1.20;;;0.73;;
72358;SDS011;60317;48.880;-0.862;2022-07-06T02:48:21;0.80;;;0.65;;
72358;SDS011;60317;48.880;-0.862;2022-07-06T02:50:49;0.73;;;0.73;;
72358;SDS011;60317;48.880;-0.862;2022-07-06T02:53:17;1.10;;;0.68;;
72358;SDS011;60317;48.880;-0.862;2022-07-06T02:55:43;1.67;;;0.80;;
72358;SDS011;60317;48.880;-0.862;2022-07-06T02:58:10;1.15;;;0.80;;
72358;SDS011;60317;48.880;-0.862;2022-07-06T03:00:36;1.50;;;0.70;;
72358;SDS011;60317;48.880;-0.862;2022-07-06T03:03:04;2.10;;;0.80;;
72358;SDS011;60317;48.880;-0.862;2022-07-06T03:05:31;0.82;;;0.70;;
72358;SDS011;60317;48.880;-0.862;2022-07-06T03:07:57;1.35;;;0.68;;
72358;SDS011;60317;48.880;-0.862;2022-07-06T03:10:24;1.00;;;0.80;;
72358;SDS011;60317;48.880;-0.862;2022-07-06T03:12:50;1.65;;;1.02;;
72358;SDS011;60317;48.880;-0.862;2022-07-06T03:15:17;0.85;;;0.60;;
72358;SDS011;60317;48.880;-0.862;2022-07-06T03:17:43;1.02;;;0.73;;
72358;SDS011;60317;48.880;-0.862;2022-07-06T03:20:11;0.50;;;0.50;;
72358;SDS011;60317;48.880;-0.862;2022-07-06T03:22:38;1.60;;;0.80;;
72358;SDS011;60317;48.880;-0.862;2022-07-06T03:25:04;1.42;;;0.70;;
72358;SDS011;60317;48.880;-0.862;2022-07-06T03:27:31;0.70;;;0.60;;
72358;SDS011;60317;48.880;-0.862;2022-07-06T03:29:58;1.48;;;0.70;;
72358;SDS011;60317;48.880;-0.862;2022-07-06T03:32:24;1.25;;;0.60;;
72358;SDS011;60317;48.880;-0.862;2022-07-06T03:34:51;0.75;;;0.70;;
72358;SDS011;60317;48.880;-0.862;2022-07-06T03:37:19;1.52;;;0.75;;
72358;SDS011;60317;48.880;-0.862;2022-07-06T03:39:45;2.33;;;0.90;;
72358;SDS011;60317;48.880;-0.862;2022-07-06T03:42:12;1.55;;;0.98;;
72358;SDS011;60317;48.880;-0.862;2022-07-06T03:44:38;1.50;;;0.73;;
72358;SDS011;60317;48.880;-0.862;2022-07-06T03:47:05;1.58;;;0.73;;
72358;SDS011;60317;48.880;-0.862;2022-07-06T03:49:31;0.73;;;0.60;;
72358;SDS011;60317;48.880;-0.862;2022-07-06T03:51:58;1.55;;;0.52;;
72358;SDS011;60317;48.880;-0.862;2022-07-06T03:54:26;1.40;;;0.85;;
72358;SDS011;60317;48.880;-0.862;2022-07-06T03:56:52;2.42;;;0.80;;
72358;SDS011;60317;48.880;-0.862;2022-07-06T03:59:19;1.20;;;0.65;;
72358;SDS011;60317;48.880;-0.862;2022-07-06T04:01:45;1.50;;;0.80;;
72358;SDS011;60317;48.880;-0.862;2022-07-06T04:04:12;1.15;;;0.80;;
72358;SDS011;60317;48.880;-0.862;2022-07-06T04:06:38;2.10;;;1.02;;
72358;SDS011;60317;48.880;-0.862;2022-07-06T04:09:05;1.17;;;0.77;;
72358;SDS011;60317;48.880;-0.862;2022-07-06T04:11:33;0.90;;;0.75;;
72358;SDS011;60317;48.880;-0.862;2022-07-06T04:13:59;1.65;;;0.82;;
72358;SDS011;60317;48.880;-0.862;2022-07-06T04:16:26;1.00;;;0.63;;
72358;SDS011;60317;48.880;-0.862;2022-07-06T04:18:52;0.98;;;0.82;;
72358;SDS011;60317;48.880;-0.862;2022-07-06T04:21:19;0.88;;;0.70;;
72358;SDS011;60317;48.880;-0.862;2022-07-06T04:23:45;2.97;;;0.85;;
72358;SDS011;60317;48.880;-0.862;2022-07-06T04:26:12;1.45;;;0.82;;
72358;SDS011;60317;48.880;-0.862;2022-07-06T04:28:39;0.65;;;0.57;;
72358;SDS011;60317;48.880;-0.862;2022-07-06T04:31:06;0.68;;;0.60;;
72358;SDS011;60317;48.880;-0.862;2022-07-06T04:33:33;2.13;;;0.90;;
72358;SDS011;60317;48.880;-0.862;2022-07-06T04:36:00;1.52;;;0.68;;
72358;SDS011;60317;48.880;-0.862;2022-07-06T04:38:27;1.70;;;0.70;;
72358;SDS011;60317;48.880;-0.862;2022-07-06T04:40:53;1.50;;;0.80;;
72358;SDS011;60317;48.880;-0.862;2022-07-06T04:43:19;2.78;;;0.95;;
72358;SDS011;60317;48.880;-0.862;2022-07-06T04:45:47;1.98;;;0.80;;
72358;SDS011;60317;48.880;-0.862;2022-07-06T04:48:14;0.93;;;0.73;;
72358;SDS011;60317;48.880;-0.862;2022-07-06T04:50:40;1.38;;;0.90;;
72358;SDS011;60317;48.880;-0.862;2022-07-06T04:53:07;3.40;;;1.00;;
72358;SDS011;60317;48.880;-0.862;2022-07-06T04:55:33;1.15;;;0.75;;
72358;SDS011;60317;48.880;-0.862;2022-07-06T04:58:00;0.80;;;0.50;;
72358;SDS011;60317;48.880;-0.862;2022-07-06T05:00:26;0.70;;;0.57;;
72358;SDS011;60317;48.880;-0.862;2022-07-06T05:02:55;2.05;;;1.02;;
72358;SDS011;60317;48.880;-0.862;2022-07-06T05:05:22;1.02;;;0.70;;
72358;SDS011;60317;48.880;-0.862;2022-07-06T05:07:48;1.40;;;0.98;;
72358;SDS011;60317;48.880;-0.862;2022-07-06T05:10:15;1.10;;;0.73;;
72358;SDS011;60317;48.880;-0.862;2022-07-06T05:12:41;2.10;;;0.93;;
72358;SDS011;60317;48.880;-0.862;2022-07-06T05:15:08;1.38;;;0.90;;
72358;SDS011;60317;48.880;-0.862;2022-07-06T05:17:35;3.30;;;1.02;;
72358;SDS011;60317;48.880;-0.862;2022-07-06T05:20:03;3.70;;;1.10;;
72358;SDS011;60317;48.880;-0.862;2022-07-06T05:22:30;4.45;;;1.60;;
72358;SDS011;60317;48.880;-0.862;2022-07-06T05:24:57;1.58;;;1.20;;
72358;SDS011;60317;48.880;-0.862;2022-07-06T05:27:23;6.30;;;1.45;;
72358;SDS011;60317;48.880;-0.862;2022-07-06T05:29:50;2.65;;;1.20;;
72358;SDS011;60317;48.880;-0.862;2022-07-06T05:32:16;5.13;;;1.58;;
72358;SDS011;60317;48.880;-0.862;2022-07-06T05:34:43;9.55;;;1.67;;
72358;SDS011;60317;48.880;-0.862;2022-07-06T05:37:10;4.00;;;1.40;;
72358;SDS011;60317;48.880;-0.862;2022-07-06T05:39:37;2.15;;;1.10;;
72358;SDS011;60317;48.880;-0.862;2022-07-06T05:42:07;4.20;;;1.58;;
72358;SDS011;60317;48.880;-0.862;2022-07-06T05:44:34;3.80;;;1.70;;
72358;SDS011;60317;48.880;-0.862;2022-07-06T05:47:00;3.03;;;1.38;;
72358;SDS011;60317;48.880;-0.862;2022-07-06T05:49:29;6.75;;;1.52;;
72358;SDS011;60317;48.880;-0.862;2022-07-06T05:51:56;4.63;;;1.40;;
72358;SDS011;60317;48.880;-0.862;2022-07-06T05:54:24;4.97;;;1.38;;
72358;SDS011;60317;48.880;-0.862;2022-07-06T05:56:50;2.25;;;1.30;;
72358;SDS011;60317;48.880;-0.862;2022-07-06T05:59:17;3.08;;;1.20;;
72358;SDS011;60317;48.880;-0.862;2022-07-06T06:01:43;3.75;;;1.42;;
72358;SDS011;60317;48.880;-0.862;2022-07-06T06:04:10;3.45;;;1.88;;
72358;SDS011;60317;48.880;-0.862;2022-07-06T06:06:37;3.00;;;1.63;;
72358;SDS011;60317;48.880;-0.862;2022-07-06T06:09:04;3.25;;;1.45;;
72358;SDS011;60317;48.880;-0.862;2022-07-06T06:11:31;4.28;;;1.70;;
72358;SDS011;60317;48.880;-0.862;2022-07-06T06:13:58;3.35;;;1.70;;
72358;SDS011;60317;48.880;-0.862;2022-07-06T06:16:24;2.90;;;1.45;;
72358;SDS011;60317;48.880;-0.862;2022-07-06T06:18:51;2.92;;;1.42;;
72358;SDS011;60317;48.880;-0.862;2022-07-06T06:21:18;4.32;;;1.52;;
72358;SDS011;60317;48.880;-0.862;2022-07-06T06:23:44;3.80;;;1.67;;
72358;SDS011;60317;48.880;-0.862;2022-07-06T06:26:11;3.53;;;1.60;;
72358;SDS011;60317;48.880;-0.862;2022-07-06T06:28:38;2.75;;;1.63;;
72358;SDS011;60317;48.880;-0.862;2022-07-06T06:31:05;4.15;;;1.80;;
72358;SDS011;60317;48.880;-0.862;2022-07-06T06:33:32;4.53;;;1.60;;
72358;SDS011;60317;48.880;-0.862;2022-07-06T06:35:58;3.97;;;1.80;;
72358;SDS011;60317;48.880;-0.862;2022-07-06T06:38:25;2.75;;;1.48;;
72358;SDS011;60317;48.880;-0.862;2022-07-06T06:40:52;5.80;;;1.90;;
72358;SDS011;60317;48.880;-0.862;2022-07-06T06:43:19;4.45;;;1.50;;
72358;SDS011;60317;48.880;-0.862;2022-07-06T06:45:47;3.95;;;1.60;;
72358;SDS011;60317;48.880;-0.862;2022-07-06T06:48:13;3.60;;;1.88;;
72358;SDS011;60317;48.880;-0.862;2022-07-06T06:50:42;4.30;;;2.03;;
72358;SDS011;60317;48.880;-0.862;2022-07-06T06:53:09;6.22;;;2.10;;
72358;SDS011;60317;48.880;-0.862;2022-07-06T06:55:36;3.88;;;1.88;;
72358;SDS011;60317;48.880;-0.862;2022-07-06T06:58:02;5.35;;;2.05;;
72358;SDS011;60317;48.880;-0.862;2022-07-06T07:00:29;5.35;;;2.25;;
72358;SDS011;60317;48.880;-0.862;2022-07-06T07:02:57;5.35;;;2.05;;
72358;SDS011;60317;48.880;-0.862;2022-07-06T07:05:23;4.88;;;2.40;;
72358;SDS011;60317;48.880;-0.862;2022-07-06T07:07:50;5.18;;;2.40;;
72358;SDS011;60317;48.880;-0.862;2022-07-06T07:10:16;3.92;;;2.25;;
72358;SDS011;60317;48.880;-0.862;2022-07-06T07:12:44;4.47;;;2.47;;
72358;SDS011;60317;48.880;-0.862;2022-07-06T07:15:11;5.72;;;2.05;;
72358;SDS011;60317;48.880;-0.862;2022-07-06T07:17:38;7.55;;;2.65;;
72358;SDS011;60317;48.880;-0.862;2022-07-06T07:20:06;5.50;;;2.50;;
72358;SDS011;60317;48.880;-0.862;2022-07-06T07:22:33;12.50;;;3.30;;
72358;SDS011;60317;48.880;-0.862;2022-07-06T07:25:00;7.45;;;2.70;;
72358;SDS011;60317;48.880;-0.862;2022-07-06T07:27:27;20.25;;;4.88;;
72358;SDS011;60317;48.880;-0.862;2022-07-06T07:29:54;6.47;;;3.00;;
72358;SDS011;60317;48.880;-0.862;2022-07-06T07:32:20;11.07;;;3.40;;
72358;SDS011;60317;48.880;-0.862;2022-07-06T07:34:47;8.60;;;2.92;;
72358;SDS011;60317;48.880;-0.862;2022-07-06T07:37:14;6.72;;;3.17;;
72358;SDS011;60317;48.880;-0.862;2022-07-06T07:39:41;10.57;;;2.70;;
72358;SDS011;60317;48.880;-0.862;2022-07-06T07:42:08;6.25;;;2.80;;
72358;SDS011;60317;48.880;-0.862;2022-07-06T07:44:42;7.55;;;2.50;;
72358;SDS011;60317;48.880;-0.862;2022-07-06T07:47:09;5.07;;;2.67;;
72358;SDS011;60317;48.880;-0.862;2022-07-06T07:49:35;4.50;;;2.75;;
72358;SDS011;60317;48.880;-0.862;2022-07-06T07:52:02;10.65;;;2.80;;
72358;SDS011;60317;48.880;-0.862;2022-07-06T07:54:30;7.78;;;3.13;;
72358;SDS011;60317;48.880;-0.862;2022-07-06T07:56:57;10.93;;;3.63;;
72358;SDS011;60317;48.880;-0.862;2022-07-06T07:59:23;7.63;;;2.78;;
72358;SDS011;60317;48.880;-0.862;2022-07-06T08:01:50;8.80;;;3.15;;
72358;SDS011;60317;48.880;-0.862;2022-07-06T08:04:17;4.97;;;2.80;;
72358;SDS011;60317;48.880;-0.862;2022-07-06T08:06:44;8.80;;;3.10;;
72358;SDS011;60317;48.880;-0.862;2022-07-06T08:09:10;9.60;;;3.10;;
72358;SDS011;60317;48.880;-0.862;2022-07-06T08:11:38;5.72;;;2.63;;
72358;SDS011;60317;48.880;-0.862;2022-07-06T08:14:05;4.88;;;2.25;;
72358;SDS011;60317;48.880;-0.862;2022-07-06T08:16:31;8.05;;;2.55;;
72358;SDS011;60317;48.880;-0.862;2022-07-06T08:18:58;5.97;;;2.42;;
72358;SDS011;60317;48.880;-0.862;2022-07-06T08:21:25;7.30;;;2.50;;
72358;SDS011;60317;48.880;-0.862;2022-07-06T08:23:53;3.95;;;2.30;;
72358;SDS011;60317;48.880;-0.862;2022-07-06T08:26:21;8.20;;;2.45;;
72358;SDS011;60317;48.880;-0.862;2022-07-06T08:28:49;4.60;;;2.58;;
72358;SDS011;60317;48.880;-0.862;2022-07-06T08:31:16;4.78;;;2.03;;
72358;SDS011;60317;48.880;-0.862;2022-07-06T08:34:02;3.78;;;2.22;;
72358;SDS011;60317;48.880;-0.862;2022-07-06T08:36:29;5.93;;;2.28;;
72358;SDS011;60317;48.880;-0.862;2022-07-06T08:38:56;5.22;;;1.95;;
72358;SDS011;60317;48.880;-0.862;2022-07-06T08:41:23;3.67;;;2.08;;
72358;SDS011;60317;48.880;-0.862;2022-07-06T08:43:53;4.38;;;2.00;;
72358;SDS011;60317;48.880;-0.862;2022-07-06T08:46:20;5.93;;;1.98;;
72358;SDS011;60317;48.880;-0.862;2022-07-06T08:48:48;6.35;;;1.90;;
72358;SDS011;60317;48.880;-0.862;2022-07-06T08:51:15;4.07;;;1.95;;
72358;SDS011;60317;48.880;-0.862;2022-07-06T08:53:42;4.45;;;1.77;;
72358;SDS011;60317;48.880;-0.862;2022-07-06T08:56:10;4.63;;;1.85;;
72358;SDS011;60317;48.880;-0.862;2022-07-06T08:58:36;3.17;;;1.77;;
72358;SDS011;60317;48.880;-0.862;2022-07-06T09:01:05;3.88;;;1.67;;
72358;SDS011;60317;48.880;-0.862;2022-07-06T09:03:31;7.20;;;1.50;;
72358;SDS011;60317;48.880;-0.862;2022-07-06T09:05:59;3.72;;;1.60;;
72358;SDS011;60317;48.880;-0.862;2022-07-06T09:08:28;4.10;;;1.42;;
72358;SDS011;60317;48.880;-0.862;2022-07-06T09:10:57;2.75;;;1.42;;
72358;SDS011;60317;48.880;-0.862;2022-07-06T09:13:23;3.10;;;1.33;;
72358;SDS011;60317;48.880;-0.862;2022-07-06T09:15:50;2.10;;;1.38;;
72358;SDS011;60317;48.880;-0.862;2022-07-06T09:18:28;3.67;;;1.40;;
72358;SDS011;60317;48.880;-0.862;2022-07-06T09:20:54;5.15;;;1.20;;
72358;SDS011;60317;48.880;-0.862;2022-07-06T09:23:22;2.35;;;1.30;;
72358;SDS011;60317;48.880;-0.862;2022-07-06T09:25:50;4.35;;;1.67;;
72358;SDS011;60317;48.880;-0.862;2022-07-06T09:28:17;3.83;;;1.60;;
72358;SDS011;60317;48.880;-0.862;2022-07-06T09:30:43;3.10;;;1.60;;
72358;SDS011;60317;48.880;-0.862;2022-07-06T09:33:10;2.53;;;1.30;;
72358;SDS011;60317;48.880;-0.862;2022-07-06T09:35:38;4.95;;;1.40;;
72358;SDS011;60317;48.880;-0.862;2022-07-06T09:38:05;2.65;;;1.40;;
72358;SDS011;60317;48.880;-0.862;2022-07-06T09:40:34;1.88;;;1.33;;
72358;SDS011;60317;48.880;-0.862;2022-07-06T09:43:10;1.52;;;1.23;;
72358;SDS011;60317;48.880;-0.862;2022-07-06T09:45:39;2.80;;;1.30;;
72358;SDS011;60317;48.880;-0.862;2022-07-06T09:48:07;4.32;;;1.30;;
72358;SDS011;60317;48.880;-0.862;2022-07-06T09:50:39;2.13;;;1.45;;
72358;SDS011;60317;48.880;-0.862;2022-07-06T09:53:07;2.38;;;1.35;;
72358;SDS011;60317;48.880;-0.862;2022-07-06T09:55:33;6.80;;;1.08;;
72358;SDS011;60317;48.880;-0.862;2022-07-06T09:58:00;5.15;;;1.55;;
72358;SDS011;60317;48.880;-0.862;2022-07-06T10:00:26;3.55;;;1.20;;
72358;SDS011;60317;48.880;-0.862;2022-07-06T10:02:53;3.83;;;1.42;;
72358;SDS011;60317;48.880;-0.862;2022-07-06T10:05:21;3.97;;;1.70;;
72358;SDS011;60317;48.880;-0.862;2022-07-06T10:07:50;4.93;;;1.30;;
72358;SDS011;60317;48.880;-0.862;2022-07-06T10:10:17;6.68;;;1.40;;
72358;SDS011;60317;48.880;-0.862;2022-07-06T10:12:44;2.67;;;1.20;;
72358;SDS011;60317;48.880;-0.862;2022-07-06T10:15:13;7.28;;;1.65;;
72358;SDS011;60317;48.880;-0.862;2022-07-06T10:17:42;6.10;;;1.35;;
72358;SDS011;60317;48.880;-0.862;2022-07-06T10:20:10;2.92;;;1.30;;
72358;SDS011;60317;48.880;-0.862;2022-07-06T10:22:37;3.45;;;1.17;;
72358;SDS011;60317;48.880;-0.862;2022-07-06T10:25:07;5.00;;;1.23;;
72358;SDS011;60317;48.880;-0.862;2022-07-06T10:27:34;2.80;;;1.30;;
72358;SDS011;60317;48.880;-0.862;2022-07-06T10:30:01;3.45;;;1.17;;
72358;SDS011;60317;48.880;-0.862;2022-07-06T10:32:28;4.15;;;1.40;;
72358;SDS011;60317;48.880;-0.862;2022-07-06T10:34:54;2.05;;;1.30;;
72358;SDS011;60317;48.880;-0.862;2022-07-06T10:37:21;1.88;;;1.30;;
72358;SDS011;60317;48.880;-0.862;2022-07-06T10:39:49;5.72;;;1.17;;
72358;SDS011;60317;48.880;-0.862;2022-07-06T10:45:08;5.22;;;1.20;;
72358;SDS011;60317;48.880;-0.862;2022-07-06T10:47:39;3.58;;;1.30;;
72358;SDS011;60317;48.880;-0.862;2022-07-06T10:50:06;2.40;;;1.48;;
72358;SDS011;60317;48.880;-0.862;2022-07-06T10:55:30;6.40;;;1.48;;
72358;SDS011;60317;48.880;-0.862;2022-07-06T11:00:25;2.63;;;1.15;;
72358;SDS011;60317;48.880;-0.862;2022-07-06T11:02:52;5.90;;;1.60;;
72358;SDS011;60317;48.880;-0.862;2022-07-06T11:11:10;2.95;;;1.23;;
72358;SDS011;60317;48.880;-0.862;2022-07-06T11:13:43;2.75;;;1.55;;
72358;SDS011;60317;48.880;-0.862;2022-07-06T11:16:14;1.92;;;1.00;;
72358;SDS011;60317;48.880;-0.862;2022-07-06T11:18:41;3.22;;;1.27;;
72358;SDS011;60317;48.880;-0.862;2022-07-06T11:21:15;3.72;;;1.33;;
72358;SDS011;60317;48.880;-0.862;2022-07-06T11:23:43;1.27;;;0.90;;
72358;SDS011;60317;48.880;-0.862;2022-07-06T11:26:12;1.92;;;1.05;;
72358;SDS011;60317;48.880;-0.862;2022-07-06T11:28:39;3.63;;;1.00;;
72358;SDS011;60317;48.880;-0.862;2022-07-06T11:31:07;2.03;;;1.23;;
72358;SDS011;60317;48.880;-0.862;2022-07-06T11:33:34;2.22;;;1.10;;
72358;SDS011;60317;48.880;-0.862;2022-07-06T11:38:43;2.78;;;1.25;;
72358;SDS011;60317;48.880;-0.862;2022-07-06T11:41:11;1.98;;;1.20;;
72358;SDS011;60317;48.880;-0.862;2022-07-06T11:43:38;6.30;;;1.10;;
72358;SDS011;60317;48.880;-0.862;2022-07-06T11:46:05;3.15;;;1.20;;
72358;SDS011;60317;48.880;-0.862;2022-07-06T11:48:33;2.08;;;1.08;;
72358;SDS011;60317;48.880;-0.862;2022-07-06T11:51:00;1.08;;;0.95;;
72358;SDS011;60317;48.880;-0.862;2022-07-06T11:53:27;5.00;;;1.25;;
72358;SDS011;60317;48.880;-0.862;2022-07-06T11:55:54;0.95;;;0.80;;
72358;SDS011;60317;48.880;-0.862;2022-07-06T11:58:21;1.30;;;1.05;;
72358;SDS011;60317;48.880;-0.862;2022-07-06T12:01:02;2.13;;;1.33;;
72358;SDS011;60317;48.880;-0.862;2022-07-06T12:03:29;2.00;;;1.08;;
72358;SDS011;60317;48.880;-0.862;2022-07-06T12:05:58;5.15;;;1.10;;
72358;SDS011;60317;48.880;-0.862;2022-07-06T12:08:24;1.63;;;1.05;;
72358;SDS011;60317;48.880;-0.862;2022-07-06T12:10:51;1.73;;;1.08;;
72358;SDS011;60317;48.880;-0.862;2022-07-06T12:13:18;1.35;;;1.00;;
72358;SDS011;60317;48.880;-0.862;2022-07-06T12:15:44;2.03;;;1.30;;
72358;SDS011;60317;48.880;-0.862;2022-07-06T12:18:11;2.45;;;1.02;;
72358;SDS011;60317;48.880;-0.862;2022-07-06T12:20:37;1.75;;;1.08;;
72358;SDS011;60317;48.880;-0.862;2022-07-06T12:23:06;3.08;;;1.15;;
72358;SDS011;60317;48.880;-0.862;2022-07-06T12:25:33;1.52;;;1.10;;
72358;SDS011;60317;48.880;-0.862;2022-07-06T12:28:02;1.40;;;1.02;;
72358;SDS011;60317;48.880;-0.862;2022-07-06T12:30:30;2.03;;;1.20;;
72358;SDS011;60317;48.880;-0.862;2022-07-06T12:35:39;2.97;;;1.30;;
72358;SDS011;60317;48.880;-0.862;2022-07-06T12:38:07;1.60;;;1.10;;
72358;SDS011;60317;48.880;-0.862;2022-07-06T12:40:35;1.98;;;1.00;;
72358;SDS011;60317;48.880;-0.862;2022-07-06T12:43:02;1.30;;;1.10;;
72358;SDS011;60317;48.880;-0.862;2022-07-06T12:45:29;1.40;;;1.00;;
72358;SDS011;60317;48.880;-0.862;2022-07-06T12:47:56;1.67;;;1.02;;
72358;SDS011;60317;48.880;-0.862;2022-07-06T12:50:30;1.23;;;0.95;;
72358;SDS011;60317;48.880;-0.862;2022-07-06T12:52:57;1.92;;;1.10;;
72358;SDS011;60317;48.880;-0.862;2022-07-06T12:55:26;1.77;;;1.10;;
72358;SDS011;60317;48.880;-0.862;2022-07-06T12:57:54;1.88;;;1.13;;
72358;SDS011;60317;48.880;-0.862;2022-07-06T13:00:21;1.17;;;0.95;;
72358;SDS011;60317;48.880;-0.862;2022-07-06T13:02:49;2.40;;;1.00;;
72358;SDS011;60317;48.880;-0.862;2022-07-06T13:05:34;1.02;;;0.90;;
72358;SDS011;60317;48.880;-0.862;2022-07-06T13:08:01;0.80;;;0.73;;
72358;SDS011;60317;48.880;-0.862;2022-07-06T13:10:28;0.90;;;0.80;;
72358;SDS011;60317;48.880;-0.862;2022-07-06T13:12:55;0.82;;;0.73;;
72358;SDS011;60317;48.880;-0.862;2022-07-06T13:15:21;1.08;;;0.90;;
72358;SDS011;60317;48.880;-0.862;2022-07-06T13:17:48;2.53;;;1.00;;
72358;SDS011;60317;48.880;-0.862;2022-07-06T13:20:15;1.13;;;0.93;;
72358;SDS011;60317;48.880;-0.862;2022-07-06T13:22:41;1.50;;;0.90;;
72358;SDS011;60317;48.880;-0.862;2022-07-06T13:25:08;1.75;;;0.93;;
72358;SDS011;60317;48.880;-0.862;2022-07-06T13:27:36;0.80;;;0.80;;
72358;SDS011;60317;48.880;-0.862;2022-07-06T13:30:02;1.20;;;0.88;;
72358;SDS011;60317;48.880;-0.862;2022-07-06T13:32:30;4.10;;;1.05;;
72358;SDS011;60317;48.880;-0.862;2022-07-06T13:34:56;1.73;;;1.17;;
72358;SDS011;60317;48.880;-0.862;2022-07-06T13:37:23;2.33;;;0.90;;
72358;SDS011;60317;48.880;-0.862;2022-07-06T13:39:49;1.67;;;0.98;;
72358;SDS011;60317;48.880;-0.862;2022-07-06T13:42:16;1.65;;;1.00;;
72358;SDS011;60317;48.880;-0.862;2022-07-06T13:44:44;3.17;;;1.13;;
72358;SDS011;60317;48.880;-0.862;2022-07-06T13:47:10;1.27;;;0.90;;
72358;SDS011;60317;48.880;-0.862;2022-07-06T13:49:37;0.80;;;0.80;;
72358;SDS011;60317;48.880;-0.862;2022-07-06T13:52:03;0.85;;;0.75;;
72358;SDS011;60317;48.880;-0.862;2022-07-06T13:54:31;0.68;;;0.60;;
72358;SDS011;60317;48.880;-0.862;2022-07-06T13:56:58;1.00;;;0.90;;
72358;SDS011;60317;48.880;-0.862;2022-07-06T13:59:27;1.50;;;0.90;;
72358;SDS011;60317;48.880;-0.862;2022-07-06T14:01:55;1.08;;;0.82;;
72358;SDS011;60317;48.880;-0.862;2022-07-06T14:04:21;1.70;;;1.00;;
72358;SDS011;60317;48.880;-0.862;2022-07-06T14:06:48;1.00;;;0.73;;
72358;SDS011;60317;48.880;-0.862;2022-07-06T14:09:15;1.95;;;1.10;;
72358;SDS011;60317;48.880;-0.862;2022-07-06T14:11:41;1.63;;;0.80;;
72358;SDS011;60317;48.880;-0.862;2022-07-06T14:14:08;0.93;;;0.75;;
72358;SDS011;60317;48.880;-0.862;2022-07-06T14:16:34;1.88;;;1.20;;
72358;SDS011;60317;48.880;-0.862;2022-07-06T14:19:02;1.25;;;0.75;;
72358;SDS011;60317;48.880;-0.862;2022-07-06T14:21:29;1.10;;;0.80;;
72358;SDS011;60317;48.880;-0.862;2022-07-06T14:23:55;2.15;;;0.77;;
72358;SDS011;60317;48.880;-0.862;2022-07-06T14:26:22;1.23;;;1.00;;
72358;SDS011;60317;48.880;-0.862;2022-07-06T14:28:49;4.35;;;1.10;;
72358;SDS011;60317;48.880;-0.862;2022-07-06T14:31:15;1.52;;;0.93;;
72358;SDS011;60317;48.880;-0.862;2022-07-06T14:33:47;1.23;;;0.60;;
72358;SDS011;60317;48.880;-0.862;2022-07-06T14:36:15;2.15;;;1.17;;
72358;SDS011;60317;48.880;-0.862;2022-07-06T14:38:42;1.13;;;0.80;;
72358;SDS011;60317;48.880;-0.862;2022-07-06T14:41:08;0.80;;;0.70;;
72358;SDS011;60317;48.880;-0.862;2022-07-06T14:43:34;0.95;;;0.60;;
72358;SDS011;60317;48.880;-0.862;2022-07-06T14:46:01;0.77;;;0.63;;
72358;SDS011;60317;48.880;-0.862;2022-07-06T14:48:28;1.75;;;0.90;;
72358;SDS011;60317;48.880;-0.862;2022-07-06T14:50:54;1.15;;;0.73;;
72358;SDS011;60317;48.880;-0.862;2022-07-06T14:53:22;1.35;;;0.80;;